sensor_id;sensor_type;location;lat;lon;timestamp;P1;durP1;ratioP1;P2;durP2;ratioP2
22525;SDS011;11429;50.842;4.386;2023-03-14T00:00:33;5.70;;;1.10;;
22525;SDS011;11429;50.842;4.386;2023-03-14T00:02:59;6.68;;;1.30;;
22525;SDS011;11429;50.842;4.386;2023-03-14T00:05:25;5.70;;;1.25;;
22525;SDS011;11429;50.842;4.386;2023-03-14T00:07:51;8.73;;;1.50;;
22525;SDS011;11429;50.842;4.386;2023-03-14T00:10:16;7.72;;;1.25;;
22525;SDS011;11429;50.842;4.386;2023-03-14T00:12:43;11.05;;;1.52;;
22525;SDS011;11429;50.842;4.386;2023-03-14T00:15:09;5.97;;;1.70;;
22525;SDS011;11429;50.842;4.386;2023-03-14T00:17:36;8.00;;;1.50;;
22525;SDS011;11429;50.842;4.386;2023-03-14T00:20:03;11.32;;;2.03;;
22525;SDS011;11429;50.842;4.386;2023-03-14T00:22:35;5.75;;;1.50;;
22525;SDS011;11429;50.842;4.386;2023-03-14T00:25:05;5.82;;;1.70;;
22525;SDS011;11429;50.842;4.386;2023-03-14T00:27:32;7.15;;;1.80;;
22525;SDS011;11429;50.842;4.386;2023-03-14T00:29:58;9.70;;;1.77;;
22525;SDS011;11429;50.842;4.386;2023-03-14T00:32:24;8.73;;;1.60;;
22525;SDS011;11429;50.842;4.386;2023-03-14T00:34:50;9.82;;;1.73;;
22525;SDS011;11429;50.842;4.386;2023-03-14T00:37:16;9.57;;;1.88;;
22525;SDS011;11429;50.842;4.386;2023-03-14T00:39:41;8.35;;;1.77;;
22525;SDS011;11429;50.842;4.386;2023-03-14T00:42:07;9.73;;;2.03;;
22525;SDS011;11429;50.842;4.386;2023-03-14T00:44:33;9.20;;;1.83;;
22525;SDS011;11429;50.842;4.386;2023-03-14T00:46:59;11.15;;;1.73;;
22525;SDS011;11429;50.842;4.386;2023-03-14T00:49:24;8.63;;;1.73;;
22525;SDS011;11429;50.842;4.386;2023-03-14T00:51:50;9.48;;;1.58;;
22525;SDS011;11429;50.842;4.386;2023-03-14T00:54:17;6.78;;;1.40;;
22525;SDS011;11429;50.842;4.386;2023-03-14T00:56:44;8.18;;;2.05;;
22525;SDS011;11429;50.842;4.386;2023-03-14T00:59:12;12.57;;;2.55;;
22525;SDS011;11429;50.842;4.386;2023-03-14T01:01:38;9.00;;;2.15;;
22525;SDS011;11429;50.842;4.386;2023-03-14T01:04:04;11.32;;;3.13;;
22525;SDS011;11429;50.842;4.386;2023-03-14T01:06:30;11.07;;;2.08;;
22525;SDS011;11429;50.842;4.386;2023-03-14T01:08:56;11.98;;;2.33;;
22525;SDS011;11429;50.842;4.386;2023-03-14T01:11:30;13.35;;;2.80;;
22525;SDS011;11429;50.842;4.386;2023-03-14T01:13:57;10.35;;;2.38;;
22525;SDS011;11429;50.842;4.386;2023-03-14T01:16:25;11.40;;;3.05;;
22525;SDS011;11429;50.842;4.386;2023-03-14T01:18:53;13.18;;;2.20;;
22525;SDS011;11429;50.842;4.386;2023-03-14T01:21:24;13.82;;;2.20;;
22525;SDS011;11429;50.842;4.386;2023-03-14T01:23:52;12.57;;;1.92;;
22525;SDS011;11429;50.842;4.386;2023-03-14T01:26:20;12.38;;;2.00;;
22525;SDS011;11429;50.842;4.386;2023-03-14T01:28:48;12.38;;;2.33;;
22525;SDS011;11429;50.842;4.386;2023-03-14T01:31:15;11.60;;;1.73;;
22525;SDS011;11429;50.842;4.386;2023-03-14T01:33:41;9.55;;;2.30;;
22525;SDS011;11429;50.842;4.386;2023-03-14T01:36:07;12.38;;;2.30;;
22525;SDS011;11429;50.842;4.386;2023-03-14T01:38:35;12.73;;;2.20;;
22525;SDS011;11429;50.842;4.386;2023-03-14T01:41:02;8.65;;;2.40;;
22525;SDS011;11429;50.842;4.386;2023-03-14T01:43:29;11.63;;;1.90;;
22525;SDS011;11429;50.842;4.386;2023-03-14T01:48:37;11.30;;;1.90;;
22525;SDS011;11429;50.842;4.386;2023-03-14T01:51:08;5.78;;;1.42;;
22525;SDS011;11429;50.842;4.386;2023-03-14T01:53:37;6.68;;;1.35;;
22525;SDS011;11429;50.842;4.386;2023-03-14T01:56:07;5.53;;;1.10;;
22525;SDS011;11429;50.842;4.386;2023-03-14T01:58:35;8.55;;;1.23;;
22525;SDS011;11429;50.842;4.386;2023-03-14T02:01:02;7.72;;;1.30;;
22525;SDS011;11429;50.842;4.386;2023-03-14T02:03:29;5.65;;;0.93;;
22525;SDS011;11429;50.842;4.386;2023-03-14T02:05:59;5.43;;;1.08;;
22525;SDS011;11429;50.842;4.386;2023-03-14T02:08:30;5.90;;;0.80;;
22525;SDS011;11429;50.842;4.386;2023-03-14T02:10:56;4.30;;;1.10;;
22525;SDS011;11429;50.842;4.386;2023-03-14T02:13:22;7.18;;;0.98;;
22525;SDS011;11429;50.842;4.386;2023-03-14T02:15:48;6.15;;;0.85;;
22525;SDS011;11429;50.842;4.386;2023-03-14T02:18:14;7.93;;;1.67;;
22525;SDS011;11429;50.842;4.386;2023-03-14T02:23:14;3.35;;;0.77;;
22525;SDS011;11429;50.842;4.386;2023-03-14T02:25:46;5.30;;;0.70;;
22525;SDS011;11429;50.842;4.386;2023-03-14T02:28:16;5.15;;;0.82;;
22525;SDS011;11429;50.842;4.386;2023-03-14T02:30:43;4.70;;;0.90;;
22525;SDS011;11429;50.842;4.386;2023-03-14T02:33:16;3.88;;;0.80;;
22525;SDS011;11429;50.842;4.386;2023-03-14T02:35:46;5.43;;;0.77;;
22525;SDS011;11429;50.842;4.386;2023-03-14T02:41:33;4.78;;;1.00;;
22525;SDS011;11429;50.842;4.386;2023-03-14T02:43:59;5.28;;;1.08;;
22525;SDS011;11429;50.842;4.386;2023-03-14T02:46:24;6.40;;;1.40;;
22525;SDS011;11429;50.842;4.386;2023-03-14T02:49:02;7.18;;;1.35;;
22525;SDS011;11429;50.842;4.386;2023-03-14T02:51:31;8.68;;;1.85;;
22525;SDS011;11429;50.842;4.386;2023-03-14T02:53:57;7.43;;;2.00;;
22525;SDS011;11429;50.842;4.386;2023-03-14T02:56:23;9.38;;;2.67;;
22525;SDS011;11429;50.842;4.386;2023-03-14T02:58:49;10.02;;;3.03;;
22525;SDS011;11429;50.842;4.386;2023-03-14T03:01:15;8.93;;;3.10;;
22525;SDS011;11429;50.842;4.386;2023-03-14T03:03:40;9.30;;;3.10;;
22525;SDS011;11429;50.842;4.386;2023-03-14T03:06:06;10.15;;;3.85;;
22525;SDS011;11429;50.842;4.386;2023-03-14T03:08:32;11.15;;;3.50;;
22525;SDS011;11429;50.842;4.386;2023-03-14T03:10:58;10.30;;;3.25;;
22525;SDS011;11429;50.842;4.386;2023-03-14T03:13:24;9.05;;;3.28;;
22525;SDS011;11429;50.842;4.386;2023-03-14T03:15:50;9.80;;;2.97;;
22525;SDS011;11429;50.842;4.386;2023-03-14T03:18:15;9.70;;;2.53;;
22525;SDS011;11429;50.842;4.386;2023-03-14T03:20:41;9.68;;;3.53;;
22525;SDS011;11429;50.842;4.386;2023-03-14T03:23:07;10.98;;;3.13;;
22525;SDS011;11429;50.842;4.386;2023-03-14T03:25:33;11.52;;;3.17;;
22525;SDS011;11429;50.842;4.386;2023-03-14T03:27:58;10.25;;;2.97;;
22525;SDS011;11429;50.842;4.386;2023-03-14T03:30:24;10.30;;;3.10;;
22525;SDS011;11429;50.842;4.386;2023-03-14T03:32:50;9.23;;;3.70;;
22525;SDS011;11429;50.842;4.386;2023-03-14T03:35:16;12.55;;;4.10;;
22525;SDS011;11429;50.842;4.386;2023-03-14T03:37:41;14.93;;;4.13;;
22525;SDS011;11429;50.842;4.386;2023-03-14T03:40:08;16.13;;;4.80;;
22525;SDS011;11429;50.842;4.386;2023-03-14T03:42:34;12.07;;;4.20;;
22525;SDS011;11429;50.842;4.386;2023-03-14T03:45:01;12.30;;;4.68;;
22525;SDS011;11429;50.842;4.386;2023-03-14T03:47:27;10.93;;;4.53;;
22525;SDS011;11429;50.842;4.386;2023-03-14T03:49:55;10.93;;;5.00;;
22525;SDS011;11429;50.842;4.386;2023-03-14T03:52:21;12.82;;;4.53;;
22525;SDS011;11429;50.842;4.386;2023-03-14T03:54:46;10.50;;;4.57;;
22525;SDS011;11429;50.842;4.386;2023-03-14T03:57:12;14.77;;;4.80;;
22525;SDS011;11429;50.842;4.386;2023-03-14T03:59:38;12.07;;;4.43;;
22525;SDS011;11429;50.842;4.386;2023-03-14T04:02:05;11.73;;;4.35;;
22525;SDS011;11429;50.842;4.386;2023-03-14T04:04:31;14.73;;;4.15;;
22525;SDS011;11429;50.842;4.386;2023-03-14T04:06:56;8.32;;;4.00;;
22525;SDS011;11429;50.842;4.386;2023-03-14T04:09:22;13.38;;;4.20;;
22525;SDS011;11429;50.842;4.386;2023-03-14T04:11:48;13.68;;;4.47;;
22525;SDS011;11429;50.842;4.386;2023-03-14T04:14:14;8.82;;;3.90;;
22525;SDS011;11429;50.842;4.386;2023-03-14T04:16:39;14.95;;;4.55;;
22525;SDS011;11429;50.842;4.386;2023-03-14T04:19:05;9.52;;;5.00;;
22525;SDS011;11429;50.842;4.386;2023-03-14T04:21:31;10.18;;;4.75;;
22525;SDS011;11429;50.842;4.386;2023-03-14T04:23:56;15.90;;;5.68;;
22525;SDS011;11429;50.842;4.386;2023-03-14T04:26:22;10.10;;;4.38;;
22525;SDS011;11429;50.842;4.386;2023-03-14T04:28:48;9.30;;;4.57;;
22525;SDS011;11429;50.842;4.386;2023-03-14T04:31:15;14.07;;;5.47;;
22525;SDS011;11429;50.842;4.386;2023-03-14T04:33:43;8.68;;;3.83;;
22525;SDS011;11429;50.842;4.386;2023-03-14T04:36:09;11.75;;;4.30;;
22525;SDS011;11429;50.842;4.386;2023-03-14T04:38:35;10.38;;;4.95;;
22525;SDS011;11429;50.842;4.386;2023-03-14T04:41:01;9.00;;;4.43;;
22525;SDS011;11429;50.842;4.386;2023-03-14T04:43:27;9.00;;;4.57;;
22525;SDS011;11429;50.842;4.386;2023-03-14T04:45:53;8.55;;;4.97;;
22525;SDS011;11429;50.842;4.386;2023-03-14T04:48:19;10.63;;;4.75;;
22525;SDS011;11429;50.842;4.386;2023-03-14T04:50:48;9.88;;;5.40;;
22525;SDS011;11429;50.842;4.386;2023-03-14T04:53:15;10.57;;;4.65;;
22525;SDS011;11429;50.842;4.386;2023-03-14T04:55:42;10.25;;;5.75;;
22525;SDS011;11429;50.842;4.386;2023-03-14T04:58:08;9.95;;;4.95;;
22525;SDS011;11429;50.842;4.386;2023-03-14T05:00:34;10.63;;;4.97;;
22525;SDS011;11429;50.842;4.386;2023-03-14T05:02:59;10.40;;;4.85;;
22525;SDS011;11429;50.842;4.386;2023-03-14T05:05:25;10.05;;;4.82;;
22525;SDS011;11429;50.842;4.386;2023-03-14T05:07:51;9.65;;;4.70;;
22525;SDS011;11429;50.842;4.386;2023-03-14T05:10:16;8.05;;;4.47;;
22525;SDS011;11429;50.842;4.386;2023-03-14T05:12:42;8.15;;;3.95;;
22525;SDS011;11429;50.842;4.386;2023-03-14T05:15:08;6.28;;;3.33;;
22525;SDS011;11429;50.842;4.386;2023-03-14T05:17:34;7.55;;;3.28;;
22525;SDS011;11429;50.842;4.386;2023-03-14T05:20:00;7.20;;;3.10;;
22525;SDS011;11429;50.842;4.386;2023-03-14T05:22:26;8.40;;;2.95;;
22525;SDS011;11429;50.842;4.386;2023-03-14T05:24:52;7.32;;;2.70;;
22525;SDS011;11429;50.842;4.386;2023-03-14T05:27:21;6.45;;;2.95;;
22525;SDS011;11429;50.842;4.386;2023-03-14T05:29:48;2.88;;;2.03;;
22525;SDS011;11429;50.842;4.386;2023-03-14T05:32:13;3.65;;;2.28;;
22525;SDS011;11429;50.842;4.386;2023-03-14T05:34:39;6.82;;;2.65;;
22525;SDS011;11429;50.842;4.386;2023-03-14T05:37:04;6.10;;;2.75;;
22525;SDS011;11429;50.842;4.386;2023-03-14T05:39:30;4.43;;;2.22;;
22525;SDS011;11429;50.842;4.386;2023-03-14T05:41:59;5.22;;;2.60;;
22525;SDS011;11429;50.842;4.386;2023-03-14T05:44:25;7.03;;;3.33;;
22525;SDS011;11429;50.842;4.386;2023-03-14T05:46:50;4.10;;;2.65;;
22525;SDS011;11429;50.842;4.386;2023-03-14T05:49:16;5.40;;;2.70;;
22525;SDS011;11429;50.842;4.386;2023-03-14T05:51:42;5.25;;;2.60;;
22525;SDS011;11429;50.842;4.386;2023-03-14T05:54:07;5.78;;;3.00;;
22525;SDS011;11429;50.842;4.386;2023-03-14T05:56:33;6.28;;;2.53;;
22525;SDS011;11429;50.842;4.386;2023-03-14T05:58:59;6.28;;;2.70;;
22525;SDS011;11429;50.842;4.386;2023-03-14T06:01:27;4.85;;;3.00;;
22525;SDS011;11429;50.842;4.386;2023-03-14T06:03:53;5.07;;;2.78;;
22525;SDS011;11429;50.842;4.386;2023-03-14T06:06:18;5.32;;;2.58;;
22525;SDS011;11429;50.842;4.386;2023-03-14T06:08:44;6.15;;;2.53;;
22525;SDS011;11429;50.842;4.386;2023-03-14T06:11:10;5.43;;;2.53;;
22525;SDS011;11429;50.842;4.386;2023-03-14T06:13:36;7.03;;;3.15;;
22525;SDS011;11429;50.842;4.386;2023-03-14T06:16:01;7.07;;;2.95;;
22525;SDS011;11429;50.842;4.386;2023-03-14T06:18:27;3.60;;;2.67;;
22525;SDS011;11429;50.842;4.386;2023-03-14T06:20:53;6.72;;;2.70;;
22525;SDS011;11429;50.842;4.386;2023-03-14T06:23:20;5.18;;;3.10;;
22525;SDS011;11429;50.842;4.386;2023-03-14T06:25:46;6.25;;;3.38;;
22525;SDS011;11429;50.842;4.386;2023-03-14T06:28:12;7.47;;;3.55;;
22525;SDS011;11429;50.842;4.386;2023-03-14T06:30:38;4.18;;;3.20;;
22525;SDS011;11429;50.842;4.386;2023-03-14T06:33:06;5.00;;;3.15;;
22525;SDS011;11429;50.842;4.386;2023-03-14T06:35:32;4.32;;;2.92;;
22525;SDS011;11429;50.842;4.386;2023-03-14T06:38:01;5.10;;;2.95;;
22525;SDS011;11429;50.842;4.386;2023-03-14T06:40:27;6.03;;;3.17;;
22525;SDS011;11429;50.842;4.386;2023-03-14T06:42:52;4.28;;;3.22;;
22525;SDS011;11429;50.842;4.386;2023-03-14T06:45:18;7.15;;;3.80;;
22525;SDS011;11429;50.842;4.386;2023-03-14T06:47:48;4.50;;;2.95;;
22525;SDS011;11429;50.842;4.386;2023-03-14T06:50:14;8.68;;;3.42;;
22525;SDS011;11429;50.842;4.386;2023-03-14T06:52:39;4.07;;;2.30;;
22525;SDS011;11429;50.842;4.386;2023-03-14T06:55:12;3.45;;;2.00;;
22525;SDS011;11429;50.842;4.386;2023-03-14T06:57:41;6.47;;;1.90;;
22525;SDS011;11429;50.842;4.386;2023-03-14T07:00:09;3.03;;;1.90;;
22525;SDS011;11429;50.842;4.386;2023-03-14T07:02:37;2.88;;;1.85;;
22525;SDS011;11429;50.842;4.386;2023-03-14T07:05:03;4.28;;;2.33;;
22525;SDS011;11429;50.842;4.386;2023-03-14T07:07:29;4.85;;;2.38;;
22525;SDS011;11429;50.842;4.386;2023-03-14T07:09:55;2.83;;;2.05;;
22525;SDS011;11429;50.842;4.386;2023-03-14T07:12:21;5.57;;;2.65;;
22525;SDS011;11429;50.842;4.386;2023-03-14T07:14:48;4.82;;;2.00;;
22525;SDS011;11429;50.842;4.386;2023-03-14T07:17:13;5.43;;;1.65;;
22525;SDS011;11429;50.842;4.386;2023-03-14T07:19:39;3.15;;;1.50;;
22525;SDS011;11429;50.842;4.386;2023-03-14T07:22:05;6.68;;;1.67;;
22525;SDS011;11429;50.842;4.386;2023-03-14T07:24:40;6.60;;;1.90;;
22525;SDS011;11429;50.842;4.386;2023-03-14T07:27:06;7.97;;;1.50;;
22525;SDS011;11429;50.842;4.386;2023-03-14T07:29:32;7.70;;;2.17;;
22525;SDS011;11429;50.842;4.386;2023-03-14T07:31:57;4.07;;;1.77;;
22525;SDS011;11429;50.842;4.386;2023-03-14T07:34:23;4.03;;;1.50;;
22525;SDS011;11429;50.842;4.386;2023-03-14T07:36:49;3.80;;;1.80;;
22525;SDS011;11429;50.842;4.386;2023-03-14T07:39:20;3.75;;;2.20;;
22525;SDS011;11429;50.842;4.386;2023-03-14T07:41:45;4.15;;;1.80;;
22525;SDS011;11429;50.842;4.386;2023-03-14T07:44:11;5.40;;;2.05;;
22525;SDS011;11429;50.842;4.386;2023-03-14T07:46:37;4.82;;;2.03;;
22525;SDS011;11429;50.842;4.386;2023-03-14T07:49:02;8.45;;;2.50;;
22525;SDS011;11429;50.842;4.386;2023-03-14T07:51:28;4.32;;;2.22;;
22525;SDS011;11429;50.842;4.386;2023-03-14T07:53:54;3.55;;;1.83;;
22525;SDS011;11429;50.842;4.386;2023-03-14T07:56:19;3.47;;;1.70;;
22525;SDS011;11429;50.842;4.386;2023-03-14T07:58:46;4.15;;;2.28;;
22525;SDS011;11429;50.842;4.386;2023-03-14T08:01:14;7.13;;;2.88;;
22525;SDS011;11429;50.842;4.386;2023-03-14T08:03:39;6.88;;;2.92;;
22525;SDS011;11429;50.842;4.386;2023-03-14T08:06:05;8.30;;;3.75;;
22525;SDS011;11429;50.842;4.386;2023-03-14T08:08:31;9.15;;;3.78;;
22525;SDS011;11429;50.842;4.386;2023-03-14T08:11:02;6.38;;;3.65;;
22525;SDS011;11429;50.842;4.386;2023-03-14T08:13:29;9.60;;;4.40;;
22525;SDS011;11429;50.842;4.386;2023-03-14T08:15:54;6.80;;;4.00;;
22525;SDS011;11429;50.842;4.386;2023-03-14T08:18:38;7.85;;;4.07;;
22525;SDS011;11429;50.842;4.386;2023-03-14T08:21:13;10.07;;;3.70;;
22525;SDS011;11429;50.842;4.386;2023-03-14T08:23:39;8.93;;;4.15;;
22525;SDS011;11429;50.842;4.386;2023-03-14T08:29:14;4.93;;;2.80;;
22525;SDS011;11429;50.842;4.386;2023-03-14T08:31:40;6.07;;;2.75;;
22525;SDS011;11429;50.842;4.386;2023-03-14T08:34:06;6.88;;;3.10;;
22525;SDS011;11429;50.842;4.386;2023-03-14T08:36:40;10.13;;;2.50;;
22525;SDS011;11429;50.842;4.386;2023-03-14T08:39:06;6.32;;;2.85;;
22525;SDS011;11429;50.842;4.386;2023-03-14T08:41:32;3.50;;;2.05;;
22525;SDS011;11429;50.842;4.386;2023-03-14T08:44:05;7.22;;;2.42;;
22525;SDS011;11429;50.842;4.386;2023-03-14T08:46:42;5.68;;;2.60;;
22525;SDS011;11429;50.842;4.386;2023-03-14T08:49:08;9.65;;;3.05;;
22525;SDS011;11429;50.842;4.386;2023-03-14T08:51:34;6.35;;;2.40;;
22525;SDS011;11429;50.842;4.386;2023-03-14T08:54:00;7.50;;;2.40;;
22525;SDS011;11429;50.842;4.386;2023-03-14T08:56:25;7.22;;;2.80;;
22525;SDS011;11429;50.842;4.386;2023-03-14T08:58:51;5.07;;;2.30;;
22525;SDS011;11429;50.842;4.386;2023-03-14T09:01:16;7.40;;;2.83;;
22525;SDS011;11429;50.842;4.386;2023-03-14T09:03:44;7.13;;;3.03;;
22525;SDS011;11429;50.842;4.386;2023-03-14T09:06:10;8.07;;;3.40;;
22525;SDS011;11429;50.842;4.386;2023-03-14T09:08:36;7.32;;;3.03;;
22525;SDS011;11429;50.842;4.386;2023-03-14T09:11:02;5.97;;;3.00;;
22525;SDS011;11429;50.842;4.386;2023-03-14T09:13:28;6.97;;;2.75;;
22525;SDS011;11429;50.842;4.386;2023-03-14T09:15:54;10.05;;;3.13;;
22525;SDS011;11429;50.842;4.386;2023-03-14T09:18:21;8.65;;;3.10;;
22525;SDS011;11429;50.842;4.386;2023-03-14T09:20:47;7.15;;;2.53;;
22525;SDS011;11429;50.842;4.386;2023-03-14T09:23:14;9.02;;;2.75;;
22525;SDS011;11429;50.842;4.386;2023-03-14T09:25:40;11.30;;;2.88;;
22525;SDS011;11429;50.842;4.386;2023-03-14T09:28:06;16.58;;;3.67;;
22525;SDS011;11429;50.842;4.386;2023-03-14T09:30:32;10.00;;;3.00;;
22525;SDS011;11429;50.842;4.386;2023-03-14T09:32:57;14.40;;;2.88;;
22525;SDS011;11429;50.842;4.386;2023-03-14T09:35:24;10.77;;;2.97;;
22525;SDS011;11429;50.842;4.386;2023-03-14T09:37:50;8.10;;;2.88;;
22525;SDS011;11429;50.842;4.386;2023-03-14T09:40:16;7.63;;;2.63;;
22525;SDS011;11429;50.842;4.386;2023-03-14T09:42:45;9.13;;;2.70;;
22525;SDS011;11429;50.842;4.386;2023-03-14T09:48:21;9.20;;;2.53;;
22525;SDS011;11429;50.842;4.386;2023-03-14T09:51:38;10.38;;;2.97;;
22525;SDS011;11429;50.842;4.386;2023-03-14T09:54:04;10.00;;;2.80;;
22525;SDS011;11429;50.842;4.386;2023-03-14T09:56:33;9.65;;;2.10;;
22525;SDS011;11429;50.842;4.386;2023-03-14T09:59:00;7.40;;;2.75;;
22525;SDS011;11429;50.842;4.386;2023-03-14T10:01:31;7.05;;;2.78;;
22525;SDS011;11429;50.842;4.386;2023-03-14T10:04:02;8.43;;;2.70;;
22525;SDS011;11429;50.842;4.386;2023-03-14T10:06:32;10.80;;;2.28;;
22525;SDS011;11429;50.842;4.386;2023-03-14T10:08:59;9.35;;;2.72;;
22525;SDS011;11429;50.842;4.386;2023-03-14T10:15:05;9.85;;;2.47;;
22525;SDS011;11429;50.842;4.386;2023-03-14T10:17:39;8.63;;;2.75;;
22525;SDS011;11429;50.842;4.386;2023-03-14T10:20:28;6.88;;;2.50;;
22525;SDS011;11429;50.842;4.386;2023-03-14T10:25:40;6.72;;;2.38;;
22525;SDS011;11429;50.842;4.386;2023-03-14T10:28:37;10.30;;;2.28;;
22525;SDS011;11429;50.842;4.386;2023-03-14T10:31:09;9.32;;;2.78;;
22525;SDS011;11429;50.842;4.386;2023-03-14T10:33:37;6.68;;;2.13;;
22525;SDS011;11429;50.842;4.386;2023-03-14T10:38:42;9.70;;;2.35;;
22525;SDS011;11429;50.842;4.386;2023-03-14T10:41:23;6.70;;;2.17;;
22525;SDS011;11429;50.842;4.386;2023-03-14T10:43:51;10.43;;;2.28;;
22525;SDS011;11429;50.842;4.386;2023-03-14T10:46:21;9.90;;;2.33;;
22525;SDS011;11429;50.842;4.386;2023-03-14T10:48:50;9.32;;;1.83;;
22525;SDS011;11429;50.842;4.386;2023-03-14T10:54:02;9.07;;;1.85;;
22525;SDS011;11429;50.842;4.386;2023-03-14T10:56:37;9.38;;;2.53;;
22525;SDS011;11429;50.842;4.386;2023-03-14T10:59:03;10.75;;;2.33;;
22525;SDS011;11429;50.842;4.386;2023-03-14T11:02:26;13.00;;;3.83;;
22525;SDS011;11429;50.842;4.386;2023-03-14T11:07:17;7.68;;;2.15;;
22525;SDS011;11429;50.842;4.386;2023-03-14T11:10:52;8.15;;;2.45;;
22525;SDS011;11429;50.842;4.386;2023-03-14T11:16:01;10.38;;;2.15;;
22525;SDS011;11429;50.842;4.386;2023-03-14T11:21:50;7.97;;;1.70;;
22525;SDS011;11429;50.842;4.386;2023-03-14T11:27:22;6.88;;;1.40;;
22525;SDS011;11429;50.842;4.386;2023-03-14T11:35:20;4.30;;;1.03;;
22525;SDS011;11429;50.842;4.386;2023-03-14T11:40:43;4.88;;;1.10;;
22525;SDS011;11429;50.842;4.386;2023-03-14T11:43:14;1.40;;;0.80;;
22525;SDS011;11429;50.842;4.386;2023-03-14T11:45:45;8.75;;;4.18;;
22525;SDS011;11429;50.842;4.386;2023-03-14T11:48:17;4.90;;;1.38;;
22525;SDS011;11429;50.842;4.386;2023-03-14T11:50:54;2.58;;;1.00;;
22525;SDS011;11429;50.842;4.386;2023-03-14T11:53:36;2.90;;;0.93;;
22525;SDS011;11429;50.842;4.386;2023-03-14T11:56:09;1.45;;;0.80;;
22525;SDS011;11429;50.842;4.386;2023-03-14T11:58:59;1.95;;;0.98;;
22525;SDS011;11429;50.842;4.386;2023-03-14T12:07:14;4.15;;;1.40;;
22525;SDS011;11429;50.842;4.386;2023-03-14T12:09:55;3.08;;;1.00;;
22525;SDS011;11429;50.842;4.386;2023-03-14T12:12:25;2.28;;;0.90;;
22525;SDS011;11429;50.842;4.386;2023-03-14T12:14:54;3.63;;;1.10;;
22525;SDS011;11429;50.842;4.386;2023-03-14T12:17:26;5.38;;;1.20;;
22525;SDS011;11429;50.842;4.386;2023-03-14T12:22:51;1.35;;;1.02;;
22525;SDS011;11429;50.842;4.386;2023-03-14T12:25:27;4.22;;;1.13;;
22525;SDS011;11429;50.842;4.386;2023-03-14T12:30:37;4.40;;;1.38;;
22525;SDS011;11429;50.842;4.386;2023-03-14T12:35:35;3.47;;;1.30;;
22525;SDS011;11429;50.842;4.386;2023-03-14T12:38:13;7.45;;;3.58;;
22525;SDS011;11429;50.842;4.386;2023-03-14T12:43:30;7.95;;;2.47;;
22525;SDS011;11429;50.842;4.386;2023-03-14T12:48:46;4.57;;;1.98;;
22525;SDS011;11429;50.842;4.386;2023-03-14T12:51:40;6.40;;;2.08;;
22525;SDS011;11429;50.842;4.386;2023-03-14T12:59:54;3.70;;;1.65;;
22525;SDS011;11429;50.842;4.386;2023-03-14T13:02:23;4.93;;;2.28;;
22525;SDS011;11429;50.842;4.386;2023-03-14T13:08:01;5.22;;;1.98;;
22525;SDS011;11429;50.842;4.386;2023-03-14T13:10:26;5.32;;;2.03;;
22525;SDS011;11429;50.842;4.386;2023-03-14T13:15:44;7.65;;;1.55;;
22525;SDS011;11429;50.842;4.386;2023-03-14T13:18:58;2.40;;;1.50;;
22525;SDS011;11429;50.842;4.386;2023-03-14T13:21:19;3.92;;;1.92;;
22525;SDS011;11429;50.842;4.386;2023-03-14T13:24:00;4.25;;;1.88;;
22525;SDS011;11429;50.842;4.386;2023-03-14T13:26:48;5.97;;;3.53;;
22525;SDS011;11429;50.842;4.386;2023-03-14T13:29:32;8.30;;;3.80;;
22525;SDS011;11429;50.842;4.386;2023-03-14T13:31:59;9.20;;;2.83;;
22525;SDS011;11429;50.842;4.386;2023-03-14T13:34:30;9.60;;;2.67;;
22525;SDS011;11429;50.842;4.386;2023-03-14T13:36:58;12.50;;;2.40;;
22525;SDS011;11429;50.842;4.386;2023-03-14T13:39:24;14.32;;;2.83;;
22525;SDS011;11429;50.842;4.386;2023-03-14T13:41:53;12.35;;;3.47;;
22525;SDS011;11429;50.842;4.386;2023-03-14T13:46:58;12.45;;;2.30;;
22525;SDS011;11429;50.842;4.386;2023-03-14T13:49:25;14.45;;;2.53;;
22525;SDS011;11429;50.842;4.386;2023-03-14T13:51:54;18.58;;;3.47;;
22525;SDS011;11429;50.842;4.386;2023-03-14T13:54:20;13.98;;;3.35;;
22525;SDS011;11429;50.842;4.386;2023-03-14T13:56:47;14.75;;;3.25;;
22525;SDS011;11429;50.842;4.386;2023-03-14T13:59:23;15.88;;;3.05;;
22525;SDS011;11429;50.842;4.386;2023-03-14T14:01:50;14.82;;;3.28;;
22525;SDS011;11429;50.842;4.386;2023-03-14T14:04:22;17.77;;;3.33;;
22525;SDS011;11429;50.842;4.386;2023-03-14T14:06:55;23.88;;;3.70;;
22525;SDS011;11429;50.842;4.386;2023-03-14T14:09:29;21.15;;;4.57;;
22525;SDS011;11429;50.842;4.386;2023-03-14T14:12:04;12.00;;;2.72;;
22525;SDS011;11429;50.842;4.386;2023-03-14T14:17:09;19.60;;;2.95;;
22525;SDS011;11429;50.842;4.386;2023-03-14T14:19:42;17.63;;;4.57;;
22525;SDS011;11429;50.842;4.386;2023-03-14T14:22:09;13.43;;;4.32;;
22525;SDS011;11429;50.842;4.386;2023-03-14T14:24:36;13.77;;;3.28;;
22525;SDS011;11429;50.842;4.386;2023-03-14T14:27:20;17.27;;;3.10;;
22525;SDS011;11429;50.842;4.386;2023-03-14T14:30:02;12.55;;;2.95;;
22525;SDS011;11429;50.842;4.386;2023-03-14T14:32:36;17.00;;;2.90;;
22525;SDS011;11429;50.842;4.386;2023-03-14T14:35:05;16.55;;;3.08;;
22525;SDS011;11429;50.842;4.386;2023-03-14T14:37:35;15.35;;;3.45;;
22525;SDS011;11429;50.842;4.386;2023-03-14T14:40:08;11.85;;;2.00;;
22525;SDS011;11429;50.842;4.386;2023-03-14T14:42:41;21.60;;;3.05;;
22525;SDS011;11429;50.842;4.386;2023-03-14T14:45:09;13.75;;;2.33;;
22525;SDS011;11429;50.842;4.386;2023-03-14T14:47:51;11.00;;;2.03;;
22525;SDS011;11429;50.842;4.386;2023-03-14T14:50:27;19.30;;;8.55;;
22525;SDS011;11429;50.842;4.386;2023-03-14T14:56:17;11.23;;;2.22;;
22525;SDS011;11429;50.842;4.386;2023-03-14T14:58:47;7.30;;;1.27;;
22525;SDS011;11429;50.842;4.386;2023-03-14T15:03:42;3.20;;;0.70;;
22525;SDS011;11429;50.842;4.386;2023-03-14T15:06:10;4.30;;;1.20;;
22525;SDS011;11429;50.842;4.386;2023-03-14T15:08:38;4.63;;;1.02;;
22525;SDS011;11429;50.842;4.386;2023-03-14T15:11:03;4.60;;;1.17;;
22525;SDS011;11429;50.842;4.386;2023-03-14T15:13:30;4.03;;;0.75;;
22525;SDS011;11429;50.842;4.386;2023-03-14T15:15:55;2.95;;;0.85;;
22525;SDS011;11429;50.842;4.386;2023-03-14T15:18:22;3.25;;;0.70;;
22525;SDS011;11429;50.842;4.386;2023-03-14T15:20:50;6.18;;;2.95;;
22525;SDS011;11429;50.842;4.386;2023-03-14T15:23:17;15.80;;;6.47;;
22525;SDS011;11429;50.842;4.386;2023-03-14T15:25:45;2.55;;;0.85;;
22525;SDS011;11429;50.842;4.386;2023-03-14T15:28:19;2.83;;;0.98;;
22525;SDS011;11429;50.842;4.386;2023-03-14T15:30:53;9.10;;;4.50;;
22525;SDS011;11429;50.842;4.386;2023-03-14T15:33:23;6.05;;;1.00;;
22525;SDS011;11429;50.842;4.386;2023-03-14T15:35:50;5.70;;;1.25;;
22525;SDS011;11429;50.842;4.386;2023-03-14T15:38:17;3.35;;;0.70;;
22525;SDS011;11429;50.842;4.386;2023-03-14T15:40:45;2.13;;;1.02;;
22525;SDS011;11429;50.842;4.386;2023-03-14T15:43:12;5.43;;;0.80;;
22525;SDS011;11429;50.842;4.386;2023-03-14T15:45:38;3.70;;;0.93;;
22525;SDS011;11429;50.842;4.386;2023-03-14T15:48:05;6.28;;;1.13;;
22525;SDS011;11429;50.842;4.386;2023-03-14T15:50:30;11.23;;;5.88;;
22525;SDS011;11429;50.842;4.386;2023-03-14T15:52:56;3.88;;;0.95;;
22525;SDS011;11429;50.842;4.386;2023-03-14T15:55:22;3.40;;;1.02;;
22525;SDS011;11429;50.842;4.386;2023-03-14T15:57:49;6.13;;;1.20;;
22525;SDS011;11429;50.842;4.386;2023-03-14T16:00:17;3.88;;;1.15;;
22525;SDS011;11429;50.842;4.386;2023-03-14T16:02:46;4.40;;;1.15;;
22525;SDS011;11429;50.842;4.386;2023-03-14T16:05:13;4.22;;;1.17;;
22525;SDS011;11429;50.842;4.386;2023-03-14T16:07:40;6.22;;;1.20;;
22525;SDS011;11429;50.842;4.386;2023-03-14T16:10:06;2.85;;;1.00;;
22525;SDS011;11429;50.842;4.386;2023-03-14T16:12:34;7.38;;;1.42;;
22525;SDS011;11429;50.842;4.386;2023-03-14T16:15:02;4.28;;;1.20;;
22525;SDS011;11429;50.842;4.386;2023-03-14T16:17:29;5.15;;;1.40;;
22525;SDS011;11429;50.842;4.386;2023-03-14T16:19:57;6.03;;;1.20;;